createdAt,value
2018-02-05T00:00:07.208Z,1019.99
2018-02-05T00:02:00.195Z,1020.00
2018-02-05T00:03:00.248Z,1020.01
2018-02-05T00:04:53.246Z,1020.01
2018-02-05T00:05:53.281Z,1020.01
2018-02-05T00:07:46.253Z,1020.05
2018-02-05T00:08:46.306Z,1020.09
2018-02-05T00:10:39.299Z,1020.10
2018-02-05T00:11:39.332Z,1020.12
2018-02-05T00:13:32.306Z,1020.14
2018-02-05T00:14:32.360Z,1020.14
2018-02-05T00:16:25.355Z,1020.17
2018-02-05T00:17:25.395Z,1020.14
2018-02-05T00:19:18.382Z,1020.05
2018-02-05T00:20:18.415Z,1020.05
2018-02-05T00:22:11.390Z,1020.07
2018-02-05T00:23:11.443Z,1020.06
2018-02-05T00:25:04.437Z,1020.04
2018-02-05T00:26:04.466Z,1020.02
2018-02-05T00:27:57.448Z,1019.94
2018-02-05T00:28:57.500Z,1019.92
2018-02-05T00:30:50.502Z,1019.90
2018-02-05T00:31:50.535Z,1019.92
2018-02-05T00:33:43.506Z,1019.98
2018-02-05T00:34:43.561Z,1020.02
2018-02-05T00:36:36.556Z,1020.02
2018-02-05T00:37:36.589Z,1020.02
2018-02-05T00:39:29.586Z,1020.06
2018-02-05T00:40:29.619Z,1020.07
2018-02-05T00:42:22.588Z,1020.03
2018-02-05T00:43:22.644Z,1020.06
2018-02-05T00:45:15.636Z,1020.08
2018-02-05T00:46:15.669Z,1020.08
2018-02-05T00:48:08.655Z,1020.13
2018-02-05T00:49:08.694Z,1020.13
2018-02-05T00:51:01.690Z,1020.14
2018-02-05T00:52:01.722Z,1020.14
2018-02-05T00:53:54.693Z,1020.15
2018-02-05T00:54:54.755Z,1020.18
2018-02-05T00:56:47.769Z,1020.14
2018-02-05T00:57:47.804Z,1020.18
2018-02-05T00:59:40.795Z,1020.19
2018-02-05T01:00:40.830Z,1020.19
2018-02-05T01:02:33.802Z,1020.14
2018-02-05T01:03:33.854Z,1020.17
2018-02-05T01:05:26.847Z,1020.14
2018-02-05T01:06:26.881Z,1020.12
2018-02-05T01:08:20.387Z,1020.13
2018-02-05T01:09:19.981Z,1020.10
2018-02-05T01:11:13.426Z,1020.06
2018-02-05T01:12:13.439Z,1020.10
2018-02-05T01:14:06.410Z,1020.11
2018-02-05T01:15:06.466Z,1020.06
2018-02-05T01:16:59.457Z,1020.10
2018-02-05T01:17:59.491Z,1020.08
2018-02-05T01:19:52.484Z,1020.10
2018-02-05T01:20:52.513Z,1020.11
2018-02-05T01:22:45.488Z,1020.10
2018-02-05T01:23:45.539Z,1020.08
2018-02-05T01:25:38.533Z,1020.07
2018-02-05T01:26:38.565Z,1020.07
2018-02-05T01:28:31.544Z,1020.12
2018-02-05T01:29:31.597Z,1020.12
2018-02-05T01:31:24.592Z,1020.14
2018-02-05T01:32:25.601Z,1020.12
2018-02-05T01:34:17.594Z,1020.16
2018-02-05T01:35:17.645Z,1020.15
2018-02-05T01:37:10.636Z,1020.17
2018-02-05T01:38:10.670Z,1020.16
2018-02-05T01:40:04.669Z,1020.11
2018-02-05T01:41:04.698Z,1020.12
2018-02-05T01:42:57.668Z,1020.13
2018-02-05T01:43:57.722Z,1020.14
2018-02-05T01:45:50.714Z,1020.19
2018-02-05T01:46:50.747Z,1020.17
2018-02-05T01:48:43.724Z,1020.21
2018-02-05T01:49:43.774Z,1020.24
2018-02-05T01:51:36.766Z,1020.22
2018-02-05T01:52:36.797Z,1020.18
2018-02-05T01:54:29.786Z,1020.18
2018-02-05T01:55:29.830Z,1020.15
2018-02-05T01:57:22.820Z,1020.22
2018-02-05T01:58:22.852Z,1020.19
2018-02-05T02:00:15.844Z,1020.27
2018-02-05T02:01:15.883Z,1020.29
2018-02-05T02:03:08.851Z,1020.22
2018-02-05T02:04:08.904Z,1020.23
2018-02-05T02:06:01.898Z,1020.27
2018-02-05T02:07:01.934Z,1020.23
2018-02-05T02:08:54.901Z,1020.25
2018-02-05T02:09:54.966Z,1020.27
2018-02-05T02:11:48.457Z,1020.22
2018-02-05T02:12:48.486Z,1020.26
2018-02-05T02:14:41.457Z,1020.27
2018-02-05T02:15:41.509Z,1020.26
2018-02-05T02:17:34.499Z,1020.29
2018-02-05T02:18:34.533Z,1020.27
2018-02-05T02:20:27.523Z,1020.32
2018-02-05T02:21:27.556Z,1020.29
2018-02-05T02:23:20.528Z,1020.29
2018-02-05T02:24:20.602Z,1020.28
2018-02-05T02:26:13.577Z,1020.28
2018-02-05T02:27:13.610Z,1020.28
2018-02-05T02:29:06.585Z,1020.31
2018-02-05T02:30:06.642Z,1020.29
2018-02-05T02:31:59.631Z,1020.36
2018-02-05T02:32:59.664Z,1020.31
2018-02-05T02:34:52.638Z,1020.32
2018-02-05T02:35:52.690Z,1020.36
2018-02-05T02:37:45.697Z,1020.30
2018-02-05T02:38:45.723Z,1020.30
2018-02-05T02:40:38.714Z,1020.34
2018-02-05T02:41:38.749Z,1020.31
2018-02-05T02:43:31.720Z,1020.33
2018-02-05T02:44:31.772Z,1020.34
2018-02-05T02:46:24.785Z,1020.34
2018-02-05T02:47:24.797Z,1020.33
2018-02-05T02:49:17.769Z,1020.34
2018-02-05T02:50:17.822Z,1020.29
2018-02-05T02:52:10.817Z,1020.30
2018-02-05T02:53:10.852Z,1020.30
2018-02-05T02:55:03.830Z,1020.36
2018-02-05T02:56:03.877Z,1020.36
2018-02-05T02:57:56.869Z,1020.39
2018-02-05T02:58:56.901Z,1020.39
2018-02-05T03:00:49.892Z,1020.36
2018-02-05T03:01:49.925Z,1020.35
2018-02-05T03:03:42.902Z,1020.32
2018-02-05T03:04:42.956Z,1020.39
2018-02-05T03:06:35.946Z,1020.37
2018-02-05T03:07:35.981Z,1020.35
2018-02-05T03:09:28.958Z,1020.36
2018-02-05T03:10:29.012Z,1020.38
2018-02-05T03:12:22.003Z,1020.39
2018-02-05T03:13:22.035Z,1020.42
2018-02-05T03:15:15.007Z,1020.40
2018-02-05T03:16:15.061Z,1020.46
2018-02-05T03:18:08.050Z,1020.45
2018-02-05T03:19:08.082Z,1020.46
2018-02-05T03:21:01.073Z,1020.45
2018-02-05T03:22:01.106Z,1020.45
2018-02-05T03:23:54.079Z,1020.47
2018-02-05T03:24:54.131Z,1020.49
2018-02-05T03:26:47.120Z,1020.47
2018-02-05T03:27:47.157Z,1020.53
2018-02-05T03:29:40.125Z,1020.52
2018-02-05T03:30:40.178Z,1020.51
2018-02-05T03:32:33.173Z,1020.55
2018-02-05T03:33:33.203Z,1020.54
2018-02-05T03:35:26.182Z,1020.59
2018-02-05T03:36:26.227Z,1020.59
2018-02-05T03:38:19.218Z,1020.63
2018-02-05T03:39:19.295Z,1020.61
2018-02-05T03:41:12.240Z,1020.63
2018-02-05T03:42:12.273Z,1020.62
2018-02-05T03:44:05.244Z,1020.65
2018-02-05T03:45:05.296Z,1020.67
2018-02-05T03:46:58.291Z,1020.67
2018-02-05T03:47:58.325Z,1020.69
2018-02-05T03:49:51.303Z,1020.73
2018-02-05T03:50:51.348Z,1020.75
2018-02-05T03:52:44.341Z,1020.75
2018-02-05T03:53:44.374Z,1020.74
2018-02-05T03:55:37.345Z,1020.76
2018-02-05T03:56:37.398Z,1020.79
2018-02-05T03:58:30.440Z,1020.81
2018-02-05T03:59:31.016Z,1020.77
2018-02-05T04:01:23.471Z,1020.79
2018-02-05T04:02:23.500Z,1020.84
2018-02-05T04:04:16.469Z,1020.82
2018-02-05T04:05:16.525Z,1020.83
2018-02-05T04:07:09.522Z,1020.88
2018-02-05T04:08:09.554Z,1020.88
2018-02-05T04:10:02.525Z,1020.93
2018-02-05T04:11:02.577Z,1020.90
2018-02-05T04:12:55.574Z,1020.96
2018-02-05T04:13:55.604Z,1020.97
2018-02-05T04:15:48.579Z,1020.97
2018-02-05T04:16:48.626Z,1021.01
2018-02-05T04:18:41.632Z,1021.03
2018-02-05T04:19:41.654Z,1021.03
2018-02-05T04:21:34.654Z,1021.00
2018-02-05T04:22:34.683Z,1020.99
2018-02-05T04:24:27.654Z,1021.08
2018-02-05T04:25:27.706Z,1021.06
2018-02-05T04:27:20.704Z,1021.09
2018-02-05T04:28:20.739Z,1021.10
2018-02-05T04:30:13.722Z,1021.11
2018-02-05T04:31:13.769Z,1021.14
2018-02-05T04:33:06.762Z,1021.10
2018-02-05T04:34:06.791Z,1021.14
2018-02-05T04:35:59.763Z,1021.09
2018-02-05T04:36:59.815Z,1021.06
2018-02-05T04:38:52.809Z,1021.11
2018-02-05T04:39:52.840Z,1021.11
2018-02-05T04:41:45.836Z,1021.10
2018-02-05T04:42:45.865Z,1021.10
2018-02-05T04:44:38.843Z,1021.07
2018-02-05T04:45:38.894Z,1021.13
2018-02-05T04:47:31.884Z,1021.11
2018-02-05T04:48:31.916Z,1021.14
2018-02-05T04:50:24.888Z,1021.14
2018-02-05T04:51:24.939Z,1021.12
2018-02-05T04:53:17.930Z,1021.14
2018-02-05T04:54:17.963Z,1021.12
2018-02-05T04:56:10.935Z,1021.14
2018-02-05T04:57:10.988Z,1021.14
2018-02-05T04:59:03.983Z,1021.18
2018-02-05T05:00:04.012Z,1021.14
2018-02-05T05:01:57.001Z,1021.08
2018-02-05T05:02:57.036Z,1021.09
2018-02-05T05:04:50.006Z,1021.10
2018-02-05T05:05:50.060Z,1021.11
2018-02-05T05:07:43.052Z,1021.11
2018-02-05T05:08:43.087Z,1021.10
2018-02-05T05:10:36.058Z,1021.08
2018-02-05T05:11:36.107Z,1021.14
2018-02-05T05:13:29.107Z,1021.07
2018-02-05T05:14:29.139Z,1021.09
2018-02-05T05:16:22.110Z,1021.08
2018-02-05T05:17:22.163Z,1021.13
2018-02-05T05:19:15.157Z,1021.08
2018-02-05T05:20:15.187Z,1021.06
2018-02-05T05:22:08.178Z,1021.10
2018-02-05T05:23:08.210Z,1021.11
2018-02-05T05:25:01.182Z,1021.13
2018-02-05T05:26:01.234Z,1021.12
2018-02-05T05:27:54.226Z,1021.14
2018-02-05T05:28:54.260Z,1021.13
2018-02-05T05:30:47.236Z,1021.12
2018-02-05T05:31:47.286Z,1021.18
2018-02-05T05:33:40.280Z,1021.11
2018-02-05T05:34:40.314Z,1021.09
2018-02-05T05:36:33.285Z,1021.12
2018-02-05T05:37:33.337Z,1021.16
2018-02-05T05:39:26.332Z,1021.15
2018-02-05T05:40:26.366Z,1021.10
2018-02-05T05:42:19.356Z,1021.15
2018-02-05T05:43:19.387Z,1021.10
2018-02-05T05:45:12.359Z,1021.14
2018-02-05T05:46:12.410Z,1021.16
2018-02-05T05:48:05.403Z,1021.17
2018-02-05T05:49:05.439Z,1021.15
2018-02-05T05:50:58.413Z,1021.13
2018-02-05T05:51:58.461Z,1021.11
2018-02-05T05:53:51.453Z,1021.10
2018-02-05T05:54:51.486Z,1021.12
2018-02-05T05:56:44.472Z,1021.11
2018-02-05T05:57:44.511Z,1021.10
2018-02-05T05:59:37.504Z,1021.10
2018-02-05T06:00:37.536Z,1021.14
2018-02-05T06:02:30.528Z,1021.16
2018-02-05T06:03:30.561Z,1021.13
2018-02-05T06:05:23.542Z,1021.14
2018-02-05T06:06:23.612Z,1021.15
2018-02-05T06:08:16.579Z,1021.15
2018-02-05T06:09:16.617Z,1021.16
2018-02-05T06:11:09.595Z,1021.15
2018-02-05T06:12:09.652Z,1021.18
2018-02-05T06:14:02.645Z,1021.20
2018-02-05T06:15:02.674Z,1021.20
2018-02-05T06:16:55.650Z,1021.25
2018-02-05T06:17:55.699Z,1021.22
2018-02-05T06:19:48.702Z,1021.23
2018-02-05T06:20:48.736Z,1021.22
2018-02-05T06:22:41.720Z,1021.29
2018-02-05T06:23:41.748Z,1021.29
2018-02-05T06:25:34.723Z,1021.35
2018-02-05T06:26:34.771Z,1021.34
2018-02-05T06:28:27.764Z,1021.34
2018-02-05T06:29:27.801Z,1021.34
2018-02-05T06:31:20.771Z,1021.33
2018-02-05T06:32:20.824Z,1021.36
2018-02-05T06:34:13.821Z,1021.38
2018-02-05T06:35:13.848Z,1021.34
2018-02-05T06:37:06.834Z,1021.36
2018-02-05T06:38:06.878Z,1021.39
2018-02-05T06:39:59.876Z,1021.34
2018-02-05T06:40:59.904Z,1021.37
2018-02-05T06:42:52.895Z,1021.33
2018-02-05T06:43:52.926Z,1021.36
2018-02-05T06:45:45.899Z,1021.34
2018-02-05T06:46:45.952Z,1021.34
2018-02-05T06:48:38.947Z,1021.33
2018-02-05T06:49:38.979Z,1021.33
2018-02-05T06:51:31.958Z,1021.37
2018-02-05T06:52:32.006Z,1021.37
2018-02-05T06:54:25.001Z,1021.40
2018-02-05T06:55:25.030Z,1021.38
2018-02-05T06:57:18.000Z,1021.44
2018-02-05T06:58:18.055Z,1021.43
2018-02-05T07:00:11.063Z,1021.44
2018-02-05T07:01:11.079Z,1021.47
2018-02-05T07:03:04.082Z,1021.41
2018-02-05T07:04:04.116Z,1021.40
2018-02-05T07:05:57.097Z,1021.42
2018-02-05T07:06:57.151Z,1021.41
2018-02-05T07:08:50.663Z,1021.44
2018-02-05T07:09:50.682Z,1021.45
2018-02-05T07:11:43.671Z,1021.44
2018-02-05T07:12:43.714Z,1021.46
2018-02-05T07:14:36.701Z,1021.52
2018-02-05T07:15:36.731Z,1021.47
2018-02-05T07:17:29.715Z,1021.50
2018-02-05T07:18:29.769Z,1021.53
2018-02-05T07:20:22.768Z,1021.57
2018-02-05T07:21:22.798Z,1021.58
2018-02-05T07:23:15.796Z,1021.58
2018-02-05T07:24:15.821Z,1021.59
2018-02-05T07:26:08.819Z,1021.60
2018-02-05T07:27:08.854Z,1021.62
2018-02-05T07:29:01.849Z,1021.65
2018-02-05T07:30:01.883Z,1021.63
2018-02-05T07:31:54.871Z,1021.64
2018-02-05T07:32:54.916Z,1021.66
2018-02-05T07:34:47.908Z,1021.62
2018-02-05T07:35:47.940Z,1021.68
2018-02-05T07:37:40.912Z,1021.67
2018-02-05T07:38:40.965Z,1021.67
2018-02-05T07:40:33.960Z,1021.70
2018-02-05T07:41:33.993Z,1021.68
2018-02-05T07:43:26.984Z,1021.72
2018-02-05T07:44:27.017Z,1021.71
2018-02-05T07:46:19.993Z,1021.75
2018-02-05T07:47:20.045Z,1021.75
2018-02-05T07:49:13.040Z,1021.75
2018-02-05T07:50:13.074Z,1021.77
2018-02-05T07:52:06.047Z,1021.79
2018-02-05T07:53:06.100Z,1021.80
2018-02-05T07:54:59.093Z,1021.76
2018-02-05T07:55:59.145Z,1021.80
2018-02-05T07:57:52.106Z,1021.80
2018-02-05T07:58:52.157Z,1021.83
2018-02-05T08:00:45.150Z,1021.85
2018-02-05T08:01:45.184Z,1021.84
2018-02-05T08:03:38.176Z,1021.82
2018-02-05T08:04:38.209Z,1021.82
2018-02-05T08:06:31.189Z,1021.78
2018-02-05T08:07:31.239Z,1021.77
2018-02-05T08:09:24.745Z,1021.83
2018-02-05T08:10:24.774Z,1021.85
2018-02-05T08:12:17.745Z,1021.88
2018-02-05T08:13:17.799Z,1021.88
2018-02-05T08:15:10.794Z,1021.85
2018-02-05T08:16:10.831Z,1021.87
2018-02-05T08:18:03.801Z,1021.86
2018-02-05T08:19:03.856Z,1021.82
2018-02-05T08:20:56.853Z,1021.81
2018-02-05T08:21:56.892Z,1021.79
2018-02-05T08:23:49.887Z,1021.79
2018-02-05T08:24:49.919Z,1021.76
2018-02-05T08:26:42.906Z,1021.77
2018-02-05T08:27:42.951Z,1021.82
2018-02-05T08:29:35.946Z,1021.78
2018-02-05T08:30:35.981Z,1021.81
2018-02-05T08:32:28.951Z,1021.75
2018-02-05T08:33:29.040Z,1021.74
2018-02-05T08:35:21.997Z,1021.74
2018-02-05T08:36:22.031Z,1021.76
2018-02-05T08:38:15.067Z,1021.72
2018-02-05T08:39:15.122Z,1021.77
2018-02-05T08:41:08.117Z,1021.74
2018-02-05T08:42:08.157Z,1021.78
2018-02-05T08:44:01.190Z,1021.76
2018-02-05T08:45:01.178Z,1021.77
2018-02-05T08:46:54.154Z,1021.74
2018-02-05T08:47:54.214Z,1021.77
2018-02-05T08:49:47.204Z,1021.77
2018-02-05T08:50:47.237Z,1021.76
2018-02-05T08:52:40.422Z,1021.79
2018-02-05T08:53:40.529Z,1021.78
2018-02-05T08:55:33.471Z,1021.78
2018-02-05T08:56:33.498Z,1021.75
2018-02-05T08:58:26.488Z,1021.74
2018-02-05T08:59:26.528Z,1021.78
2018-02-05T09:01:19.528Z,1021.76
2018-02-05T09:02:19.554Z,1021.74
2018-02-05T09:04:12.551Z,1021.75
2018-02-05T09:05:12.589Z,1021.72
2018-02-05T09:07:05.558Z,1021.72
2018-02-05T09:08:05.617Z,1021.68
2018-02-05T09:09:58.612Z,1021.68
2018-02-05T09:10:58.644Z,1021.74
2018-02-05T09:12:51.633Z,1021.72
2018-02-05T09:13:51.671Z,1021.77
2018-02-05T09:15:44.675Z,1021.79
2018-02-05T09:16:44.711Z,1021.74
2018-02-05T09:18:37.684Z,1021.73
2018-02-05T09:19:37.738Z,1021.71
2018-02-05T09:21:30.740Z,1021.68
2018-02-05T09:22:30.766Z,1021.71
2018-02-05T09:24:23.766Z,1021.70
2018-02-05T09:25:23.797Z,1021.73
2018-02-05T09:27:16.778Z,1021.75
2018-02-05T09:28:16.832Z,1021.70
2018-02-05T09:30:09.830Z,1021.71
2018-02-05T09:31:09.910Z,1021.70
2018-02-05T09:33:02.845Z,1021.70
2018-02-05T09:34:02.900Z,1021.72
2018-02-05T09:35:55.890Z,1021.68
2018-02-05T09:36:55.923Z,1021.70
2018-02-05T09:38:48.904Z,1021.74
2018-02-05T09:39:48.954Z,1021.74
2018-02-05T09:41:41.949Z,1021.65
2018-02-05T09:42:41.982Z,1021.70
2018-02-05T09:44:34.978Z,1021.71
2018-02-05T09:45:35.011Z,1021.69
2018-02-05T09:47:28.015Z,1021.65
2018-02-05T09:48:28.043Z,1021.74
2018-02-05T09:50:21.061Z,1021.70
2018-02-05T09:51:21.070Z,1021.73
2018-02-05T09:53:14.054Z,1021.77
2018-02-05T09:54:14.107Z,1021.74
2018-02-05T09:56:07.091Z,1021.73
2018-02-05T09:57:07.128Z,1021.72
2018-02-05T09:59:00.103Z,1021.70
2018-02-05T10:00:00.161Z,1021.70
2018-02-05T10:01:53.163Z,1021.70
2018-02-05T10:02:53.182Z,1021.68
2018-02-05T10:04:46.180Z,1021.69
2018-02-05T10:05:46.215Z,1021.70
2018-02-05T10:07:39.204Z,1021.67
2018-02-05T10:08:39.242Z,1021.64
2018-02-05T10:10:32.240Z,1021.69
2018-02-05T10:11:32.269Z,1021.65
2018-02-05T10:13:25.256Z,1021.71
2018-02-05T10:14:25.300Z,1021.71
2018-02-05T10:16:18.295Z,1021.81
2018-02-05T10:17:18.327Z,1021.80
2018-02-05T10:19:11.326Z,1021.76
2018-02-05T10:20:11.381Z,1021.76
2018-02-05T10:22:04.384Z,1021.76
2018-02-05T10:23:04.399Z,1021.72
2018-02-05T10:24:57.390Z,1021.76
2018-02-05T10:25:57.422Z,1021.74
2018-02-05T10:27:50.403Z,1021.76
2018-02-05T10:28:50.452Z,1021.66
2018-02-05T10:30:43.447Z,1021.77
2018-02-05T10:31:43.483Z,1021.73
2018-02-05T10:33:36.467Z,1021.72
2018-02-05T10:34:36.522Z,1021.76
2018-02-05T10:36:29.520Z,1021.75
2018-02-05T10:37:29.542Z,1021.68
2018-02-05T10:39:22.522Z,1021.67
2018-02-05T10:40:22.573Z,1021.62
2018-02-05T10:42:15.568Z,1021.67
2018-02-05T10:43:15.600Z,1021.68
2018-02-05T10:45:08.598Z,1021.65
2018-02-05T10:46:08.637Z,1021.64
2018-02-05T10:48:01.615Z,1021.67
2018-02-05T10:49:01.671Z,1021.61
2018-02-05T10:50:54.662Z,1021.60
2018-02-05T10:51:54.695Z,1021.52
2018-02-05T10:53:47.683Z,1021.52
2018-02-05T10:54:47.732Z,1021.51
2018-02-05T10:56:40.731Z,1021.56
2018-02-05T10:57:40.766Z,1021.51
2018-02-05T10:59:33.747Z,1021.44
2018-02-05T11:00:33.804Z,1021.47
2018-02-05T11:02:26.798Z,1021.50
2018-02-05T11:03:26.830Z,1021.49
2018-02-05T11:05:19.834Z,1021.49
2018-02-05T11:06:19.872Z,1021.45
2018-02-05T11:08:12.849Z,1021.45
2018-02-05T11:09:12.898Z,1021.44
2018-02-05T11:11:05.898Z,1021.47
2018-02-05T11:12:05.929Z,1021.41
2018-02-05T11:13:58.903Z,1021.38
2018-02-05T11:14:58.957Z,1021.37
2018-02-05T11:16:51.968Z,1021.36
2018-02-05T11:17:51.994Z,1021.34
2018-02-05T11:19:44.970Z,1021.39
2018-02-05T11:20:45.020Z,1021.34
2018-02-05T11:22:38.027Z,1021.33
2018-02-05T11:23:38.049Z,1021.35
2018-02-05T11:25:31.047Z,1021.33
2018-02-05T11:26:31.076Z,1021.33
2018-02-05T11:28:24.085Z,1021.34
2018-02-05T11:29:24.124Z,1021.33
2018-02-05T11:31:17.107Z,1021.30
2018-02-05T11:32:17.145Z,1021.29
2018-02-05T11:34:10.123Z,1021.26
2018-02-05T11:35:10.334Z,1021.27
2018-02-05T11:37:03.177Z,1021.27
2018-02-05T11:38:03.212Z,1021.24
2018-02-05T11:39:56.197Z,1021.19
2018-02-05T11:40:56.246Z,1021.17
2018-02-05T11:42:49.292Z,1021.26
2018-02-05T11:43:49.279Z,1021.24
2018-02-05T11:45:42.283Z,1021.19
2018-02-05T11:46:42.317Z,1021.16
2018-02-05T11:48:35.313Z,1021.15
2018-02-05T11:49:35.375Z,1021.10
2018-02-05T11:51:28.349Z,1021.12
2018-02-05T11:52:28.385Z,1021.14
2018-02-05T11:54:21.360Z,1021.07
2018-02-05T11:55:21.416Z,1021.11
2018-02-05T11:57:14.448Z,1021.05
2018-02-05T11:58:14.460Z,1021.05
2018-02-05T12:00:07.421Z,1020.98
2018-02-05T12:01:07.476Z,1020.97
2018-02-05T12:03:00.484Z,1020.97
2018-02-05T12:04:00.521Z,1020.96
2018-02-05T12:05:53.533Z,1020.94
2018-02-05T12:06:53.552Z,1020.97
2018-02-05T12:08:46.530Z,1021.02
2018-02-05T12:09:46.581Z,1020.93
2018-02-05T12:11:39.576Z,1021.03
2018-02-05T12:12:39.611Z,1020.97
2018-02-05T12:14:32.605Z,1020.92
2018-02-05T12:15:32.639Z,1020.95
2018-02-05T12:17:25.661Z,1020.91
2018-02-05T12:18:25.675Z,1020.88
2018-02-05T12:20:18.669Z,1020.84
2018-02-05T12:21:18.722Z,1020.88
2018-02-05T12:23:11.722Z,1020.79
2018-02-05T12:24:11.762Z,1020.83
2018-02-05T12:26:04.780Z,1020.82
2018-02-05T12:27:04.789Z,1020.90
2018-02-05T12:28:57.808Z,1020.83
2018-02-05T12:29:58.037Z,1020.83
2018-02-05T12:31:50.860Z,1020.88
2018-02-05T12:32:50.940Z,1020.86
2018-02-05T12:34:43.901Z,1020.82
2018-02-05T12:35:43.928Z,1020.81
2018-02-05T12:37:36.901Z,1020.75
2018-02-05T12:38:36.955Z,1020.68
2018-02-05T12:40:30.047Z,1020.70
2018-02-05T12:41:29.961Z,1020.60
2018-02-05T12:43:22.953Z,1020.61
2018-02-05T12:44:22.990Z,1020.63
2018-02-05T12:46:16.032Z,1020.62
2018-02-05T12:47:16.053Z,1020.59
2018-02-05T12:49:08.993Z,1020.54
2018-02-05T12:50:09.057Z,1020.54
2018-02-05T12:52:02.065Z,1020.49
2018-02-05T12:53:02.121Z,1020.46
2018-02-05T12:54:55.057Z,1020.45
2018-02-05T12:55:55.123Z,1020.59
2018-02-05T12:57:48.163Z,1020.49
2018-02-05T12:58:48.183Z,1020.44
2018-02-05T13:00:41.131Z,1020.45
2018-02-05T13:01:41.200Z,1020.41
2018-02-05T13:03:34.166Z,1020.40
2018-02-05T13:04:34.220Z,1020.41
2018-02-05T13:06:27.295Z,1020.32
2018-02-05T13:07:27.249Z,1020.28
2018-02-05T13:09:20.233Z,1020.27
2018-02-05T13:10:20.349Z,1020.32
2018-02-05T13:12:13.249Z,1020.31
2018-02-05T13:13:13.326Z,1020.19
2018-02-05T13:15:06.266Z,1020.24
2018-02-05T13:16:06.316Z,1020.29
2018-02-05T13:17:59.317Z,1020.26
2018-02-05T13:18:59.346Z,1020.20
2018-02-05T13:20:52.326Z,1020.19
2018-02-05T13:21:52.382Z,1020.15
2018-02-05T13:23:45.375Z,1020.24
2018-02-05T13:24:45.410Z,1020.18
2018-02-05T13:26:38.407Z,1020.13
2018-02-05T13:27:38.453Z,1020.17
2018-02-05T13:29:31.416Z,1020.11
2018-02-05T13:30:31.474Z,1020.11
2018-02-05T13:32:24.468Z,1020.14
2018-02-05T13:33:24.510Z,1020.11
2018-02-05T13:35:17.473Z,1020.04
2018-02-05T13:36:17.552Z,1020.11
2018-02-05T13:38:10.525Z,1020.11
2018-02-05T13:39:10.554Z,1020.07
2018-02-05T13:41:03.537Z,1020.07
2018-02-05T13:42:03.601Z,1020.07
2018-02-05T13:43:56.580Z,1020.00
2018-02-05T13:44:56.618Z,1020.00
2018-02-05T13:46:49.608Z,1019.99
2018-02-05T13:47:49.643Z,1019.98
2018-02-05T13:49:42.618Z,1019.95
2018-02-05T13:50:42.670Z,1020.00
2018-02-05T13:52:35.664Z,1020.03
2018-02-05T13:53:35.698Z,1019.98
2018-02-05T13:55:28.673Z,1019.97
2018-02-05T13:56:28.730Z,1019.93
2018-02-05T13:58:21.722Z,1019.86
2018-02-05T13:59:21.798Z,1019.80
2018-02-05T14:01:14.744Z,1019.83
2018-02-05T14:02:14.786Z,1019.83
2018-02-05T14:04:07.782Z,1019.80
2018-02-05T14:05:07.815Z,1019.88
2018-02-05T14:07:00.817Z,1019.84
2018-02-05T14:08:00.846Z,1019.82
2018-02-05T14:09:53.821Z,1019.86
2018-02-05T14:10:53.875Z,1019.88
2018-02-05T14:12:46.869Z,1019.87
2018-02-05T14:13:46.905Z,1019.83
2018-02-05T14:15:39.882Z,1019.85
2018-02-05T14:16:39.931Z,1019.82
2018-02-05T14:18:32.941Z,1019.84
2018-02-05T14:19:32.967Z,1019.82
2018-02-05T14:21:25.940Z,1019.82
2018-02-05T14:22:26.045Z,1019.85
2018-02-05T14:24:18.999Z,1019.76
2018-02-05T14:25:19.035Z,1019.81
2018-02-05T14:27:12.027Z,1019.77
2018-02-05T14:28:12.111Z,1019.75
2018-02-05T14:30:05.041Z,1019.75
2018-02-05T14:31:05.097Z,1019.78
2018-02-05T14:32:58.095Z,1019.75
2018-02-05T14:33:58.131Z,1019.73
2018-02-05T14:35:51.105Z,1019.71
2018-02-05T14:36:51.164Z,1019.73
2018-02-05T14:38:44.200Z,1019.73
2018-02-05T14:39:44.358Z,1019.71
2018-02-05T14:41:37.174Z,1019.67
2018-02-05T14:42:37.234Z,1019.65
2018-02-05T14:44:30.225Z,1019.63
2018-02-05T14:45:30.253Z,1019.60
2018-02-05T14:47:23.246Z,1019.62
2018-02-05T14:48:23.281Z,1019.60
2018-02-05T14:50:16.262Z,1019.64
2018-02-05T14:51:16.313Z,1019.56
2018-02-05T14:53:09.309Z,1019.57
2018-02-05T14:54:09.342Z,1019.51
2018-02-05T14:56:02.314Z,1019.52
2018-02-05T14:57:02.370Z,1019.48
2018-02-05T14:58:55.370Z,1019.46
2018-02-05T14:59:55.402Z,1019.47
2018-02-05T15:01:48.388Z,1019.51
2018-02-05T15:02:48.430Z,1019.48
2018-02-05T15:04:41.423Z,1019.45
2018-02-05T15:05:41.459Z,1019.40
2018-02-05T15:07:34.538Z,1019.41
2018-02-05T15:08:34.497Z,1019.43
2018-02-05T15:10:27.468Z,1019.41
2018-02-05T15:11:27.521Z,1019.36
2018-02-05T15:13:20.524Z,1019.35
2018-02-05T15:14:20.557Z,1019.37
2018-02-05T15:16:13.535Z,1019.27
2018-02-05T15:17:13.590Z,1019.27
2018-02-05T15:19:06.585Z,1019.29
2018-02-05T15:20:06.616Z,1019.19
2018-02-05T15:21:59.590Z,1019.25
2018-02-05T15:22:59.646Z,1019.22
2018-02-05T15:24:52.640Z,1019.22
2018-02-05T15:25:52.676Z,1019.15
2018-02-05T15:27:45.670Z,1019.13
2018-02-05T15:28:45.703Z,1019.12
2018-02-05T15:30:38.684Z,1019.14
2018-02-05T15:31:38.733Z,1019.11
2018-02-05T15:33:31.728Z,1019.13
2018-02-05T15:34:31.787Z,1019.12
2018-02-05T15:36:24.968Z,1019.18
2018-02-05T15:37:24.801Z,1019.22
2018-02-05T15:39:17.805Z,1019.20
2018-02-05T15:40:17.837Z,1019.19
2018-02-05T15:42:10.837Z,1019.15
2018-02-05T15:43:10.880Z,1019.12
2018-02-05T15:45:03.912Z,1019.07
2018-02-05T15:46:03.929Z,1019.07
2018-02-05T15:47:56.925Z,1019.04
2018-02-05T15:48:56.982Z,1019.06
2018-02-05T15:50:49.909Z,1019.03
2018-02-05T15:51:49.957Z,1018.99
2018-02-05T15:53:42.960Z,1019.03
2018-02-05T15:54:42.998Z,1018.97
2018-02-05T15:56:35.967Z,1018.98
2018-02-05T15:57:36.021Z,1018.94
2018-02-05T15:59:29.017Z,1018.94
2018-02-05T16:00:29.144Z,1018.90
2018-02-05T16:02:22.030Z,1018.91
2018-02-05T16:03:22.099Z,1018.87
2018-02-05T16:05:15.603Z,1018.88
2018-02-05T16:06:15.623Z,1018.90
2018-02-05T16:08:08.647Z,1018.90
2018-02-05T16:09:08.641Z,1018.90
2018-02-05T16:11:01.622Z,1018.90
2018-02-05T16:12:01.676Z,1018.92
2018-02-05T16:13:54.668Z,1018.94
2018-02-05T16:14:54.700Z,1018.89
2018-02-05T16:16:47.698Z,1018.89
2018-02-05T16:17:47.764Z,1018.87
2018-02-05T16:19:41.283Z,1018.81
2018-02-05T16:20:41.268Z,1018.81
2018-02-05T16:22:34.317Z,1018.83
2018-02-05T16:23:34.293Z,1018.85
2018-02-05T16:25:27.308Z,1018.84
2018-02-05T16:26:27.329Z,1018.83
2018-02-05T16:28:20.477Z,1018.80
2018-02-05T16:29:20.348Z,1018.77
2018-02-05T16:31:13.374Z,1018.79
2018-02-05T16:32:13.382Z,1018.80
2018-02-05T16:34:06.374Z,1018.79
2018-02-05T16:35:06.494Z,1018.79
2018-02-05T16:36:59.431Z,1018.77
2018-02-05T16:37:59.435Z,1018.79
2018-02-05T16:39:52.438Z,1018.74
2018-02-05T16:40:52.473Z,1018.76
2018-02-05T16:42:45.491Z,1018.79
2018-02-05T16:43:45.495Z,1018.81
2018-02-05T16:45:38.516Z,1018.80
2018-02-05T16:46:38.572Z,1018.75
2018-02-05T16:48:31.573Z,1018.75
2018-02-05T16:49:31.579Z,1018.72
2018-02-05T16:51:24.534Z,1018.76
2018-02-05T16:52:24.584Z,1018.80
2018-02-05T16:54:17.579Z,1018.75
2018-02-05T16:55:17.639Z,1018.76
2018-02-05T16:57:10.618Z,1018.74
2018-02-05T16:58:10.651Z,1018.73
2018-02-05T17:00:03.711Z,1018.74
2018-02-05T17:01:03.695Z,1018.73
2018-02-05T17:02:56.652Z,1018.75
2018-02-05T17:03:56.701Z,1018.76
2018-02-05T17:05:50.206Z,1018.71
2018-02-05T17:06:49.732Z,1018.73
2018-02-05T17:08:42.732Z,1018.72
2018-02-05T17:09:42.759Z,1018.72
2018-02-05T17:11:35.765Z,1018.79
2018-02-05T17:12:35.797Z,1018.73
2018-02-05T17:14:28.807Z,1018.71
2018-02-05T17:15:28.858Z,1018.76
2018-02-05T17:17:21.915Z,1018.70
2018-02-05T17:18:21.865Z,1018.70
2018-02-05T17:20:14.891Z,1018.65
2018-02-05T17:21:14.894Z,1018.71
2018-02-05T17:23:07.903Z,1018.72
2018-02-05T17:24:07.935Z,1018.66
2018-02-05T17:26:00.979Z,1018.71